Time;durP1;ratioP1;P1;durP2;ratioP2;P2;SDS_P1;SDS_P2;PMS_P1;PMS_P2;Temp;Humidity;BMP_temperature;BMP_pressure;BME280_temperature;BME280_humidity;BME280_pressure;Samples;Min_cycle;Max_cycle;Signal;HPM_P1;HPM_P2
2022/01/03 00:02:25;;;;;;;17.40;4.25;;;;;;;9.73;85.43;100689.16;4981917;28;20051;-86
2022/01/03 00:04:54;;;;;;;11.13;4.20;;;;;;;9.71;85.27;100688.50;4984965;28;20047;-84
2022/01/03 00:07:22;;;;;;;21.33;4.75;;;;;;;9.71;85.36;100694.53;4985514;28;20085;-83
2022/01/03 00:09:49;;;;;;;21.70;4.78;;;;;;;9.69;85.46;100695.66;4987220;28;20047;-84
2022/01/03 00:12:15;;;;;;;16.92;4.55;;;;;;;9.61;85.53;100688.56;4985753;28;20078;-84
2022/01/03 00:14:43;;;;;;;16.52;5.68;;;;;;;9.59;86.00;100701.78;4984171;28;20047;-83
2022/01/03 00:17:10;;;;;;;15.43;4.50;;;;;;;9.56;86.06;100701.25;4984755;28;20039;-83
2022/01/03 00:19:37;;;;;;;20.10;4.72;;;;;;;9.57;86.25;100708.94;4983067;28;20080;-83
2022/01/03 00:22:07;;;;;;;21.10;4.60;;;;;;;9.69;84.81;100708.72;4984983;28;20078;-83
2022/01/03 00:24:36;;;;;;;16.52;4.90;;;;;;;9.61;86.23;100699.84;4983472;28;20109;-85
2022/01/03 00:27:08;;;;;;;16.33;5.00;;;;;;;9.62;85.24;100709.31;4981793;28;20051;-85
2022/01/03 00:29:43;;;;;;;19.55;4.85;;;;;;;9.68;85.30;100713.13;4979125;28;20106;-84
2022/01/03 00:32:11;;;;;;;21.33;4.47;;;;;;;9.62;85.91;100729.41;4981585;28;20050;-84
2022/01/03 00:34:39;;;;;;;16.60;4.43;;;;;;;9.59;85.65;100721.84;4979471;28;20053;-85
2022/01/03 00:37:07;;;;;;;22.92;5.20;;;;;;;9.60;85.56;100733.94;4977314;28;20110;-86
2022/01/03 00:39:35;;;;;;;18.67;4.57;;;;;;;9.56;85.49;100722.97;4979028;28;20428;-85
2022/01/03 00:42:02;;;;;;;23.08;5.75;;;;;;;9.59;84.85;100735.72;4980098;28;20104;-84
2022/01/03 00:44:30;;;;;;;16.83;5.45;;;;;;;9.69;84.26;100733.06;4978588;28;20628;-84
2022/01/03 00:46:59;;;;;;;16.98;4.60;;;;;;;9.64;84.74;100738.72;4978755;28;20046;-84
2022/01/03 00:49:26;;;;;;;17.90;4.90;;;;;;;9.61;84.46;100741.63;4978591;28;20051;-85
2022/01/03 00:51:53;;;;;;;19.38;4.43;;;;;;;9.60;84.57;100739.16;4983168;28;20050;-84
2022/01/03 00:54:19;;;;;;;17.58;4.38;;;;;;;9.58;84.61;100736.69;4989997;28;20557;-85
2022/01/03 00:56:48;;;;;;;15.52;4.13;;;;;;;9.65;82.84;100732.53;4980898;28;20130;-84
2022/01/03 00:59:16;;;;;;;17.40;4.35;;;;;;;9.74;83.10;100745.69;4982809;28;20055;-84
2022/01/03 01:01:46;;;;;;;18.15;4.57;;;;;;;9.77;82.61;100741.00;4983057;28;20126;-84
2022/01/03 01:04:14;;;;;;;14.50;4.20;;;;;;;9.75;83.27;100742.94;4984819;28;20086;-85
2022/01/03 01:06:41;;;;;;;15.20;4.45;;;;;;;9.76;83.22;100748.97;4993759;28;20058;-84
2022/01/03 01:09:11;;;;;;;15.48;4.07;;;;;;;9.64;83.60;100746.56;4987437;28;20074;-85
2022/01/03 01:11:42;;;;;;;17.60;4.47;;;;;;;9.58;84.23;100747.16;4979532;28;20115;-86
2022/01/03 01:14:13;;;;;;;20.55;4.18;;;;;;;9.53;84.70;100744.16;4978189;28;20466;-86
2022/01/03 01:16:40;;;;;;;19.08;4.22;;;;;;;9.44;84.97;100750.28;4976937;28;20089;-86
2022/01/03 01:19:08;;;;;;;12.48;4.10;;;;;;;9.54;84.90;100756.25;4977259;28;20470;-86
2022/01/03 01:21:36;;;;;;;17.45;4.80;;;;;;;9.49;84.84;100749.81;4976585;28;20069;-86
2022/01/03 01:24:03;;;;;;;17.05;5.35;;;;;;;9.40;85.14;100740.25;4980312;28;20041;-86
2022/01/03 01:29:16;;;;;;;18.52;4.88;;;;;;;9.57;84.82;100753.34;4979619;28;20046;-85
2022/01/03 01:31:48;;;;;;;26.60;6.03;;;;;;;9.50;85.13;100744.44;4980352;28;20042;-85
2022/01/03 01:34:19;;;;;;;22.15;5.82;;;;;;;9.57;84.88;100758.56;4982537;28;20050;-85
2022/01/03 01:36:47;;;;;;;20.20;6.15;;;;;;;9.62;85.13;100763.34;4981934;28;20057;-85
2022/01/03 01:39:16;;;;;;;16.75;5.75;;;;;;;9.64;84.95;100769.25;4982180;28;20051;-85
2022/01/03 01:41:45;;;;;;;18.52;5.13;;;;;;;9.66;84.36;100764.72;4982656;28;20062;-86
2022/01/03 01:44:17;;;;;;;12.57;4.22;;;;;;;9.65;84.90;100774.34;4980748;28;20153;-86
2022/01/03 01:46:46;;;;;;;21.88;5.53;;;;;;;9.64;84.35;100771.88;4982714;28;20106;-85
2022/01/03 01:49:17;;;;;;;15.20;4.68;;;;;;;9.65;84.36;100770.91;4983353;28;20058;-85
2022/01/03 01:51:47;;;;;;;20.73;5.00;;;;;;;9.65;84.51;100770.91;4984917;28;20058;-86
2022/01/03 01:54:17;;;;;;;18.58;4.45;;;;;;;9.61;84.44;100773.00;4980498;28;20122;-85
2022/01/03 01:57:03;;;;;;;19.38;5.20;;;;;;;9.68;84.06;100770.63;4982760;28;20118;-84
2022/01/03 01:59:41;;;;;;;14.95;5.32;;;;;;;9.70;83.99;100788.75;4982752;28;20058;-85
2022/01/03 02:02:09;;;;;;;18.02;5.20;;;;;;;9.79;83.49;100770.41;4982343;28;20106;-86
2022/01/03 02:04:59;;;;;;;12.50;4.55;;;;;;;9.77;83.39;100782.81;4978000;28;20112;-85
2022/01/03 02:07:34;;;;;;;22.88;4.82;;;;;;;9.70;83.63;100773.91;4979259;28;20055;-85
2022/01/03 02:10:06;;;;;;;19.23;4.60;;;;;;;9.61;83.67;100775.59;4983527;28;20058;-85
2022/01/03 02:12:38;;;;;;;24.58;5.00;;;;;;;9.59;83.25;100766.25;4983260;28;20051;-84
2022/01/03 02:15:13;;;;;;;14.82;4.32;;;;;;;9.38;83.49;100763.91;4981735;28;20059;-86
2022/01/03 02:17:49;;;;;;;15.65;4.45;;;;;;;9.55;83.33;100770.13;4982853;28;20086;-85
2022/01/03 02:20:22;;;;;;;15.35;4.25;;;;;;;9.48;83.85;100776.91;4982363;28;20046;-85
2022/01/03 02:22:50;;;;;;;16.92;4.88;;;;;;;9.44;83.47;100779.00;4983989;28;20213;-85
2022/01/03 02:25:19;;;;;;;18.27;4.43;;;;;;;9.42;83.63;100786.16;4981648;28;20116;-85
2022/01/03 02:27:48;;;;;;;18.02;4.30;;;;;;;9.44;83.40;100773.78;4982189;28;20050;-84
2022/01/03 02:30:19;;;;;;;18.42;4.30;;;;;;;9.40;83.26;100775.03;4981455;28;20109;-85
2022/01/03 02:32:46;;;;;;;17.13;4.68;;;;;;;9.43;83.29;100764.31;4982393;28;20082;-85
2022/01/03 02:35:13;;;;;;;25.48;5.00;;;;;;;9.42;83.47;100770.50;4981794;28;20047;-85
2022/01/03 02:37:44;;;;;;;16.25;4.95;;;;;;;9.43;83.13;100773.94;4982708;28;20078;-84
2022/01/03 02:40:11;;;;;;;17.13;4.30;;;;;;;9.44;83.07;100765.94;4980793;28;20094;-84
2022/01/03 02:42:38;;;;;;;15.18;3.97;;;;;;;9.27;83.53;100748.44;4980287;28;20220;-84
2022/01/03 02:45:08;;;;;;;13.30;4.88;;;;;;;9.38;83.52;100769.13;4980182;28;20133;-86
2022/01/03 02:47:37;;;;;;;12.98;4.18;;;;;;;9.38;83.28;100776.16;4982427;28;20054;-85
2022/01/03 02:50:08;;;;;;;16.88;5.63;;;;;;;9.46;82.76;100792.72;4982744;28;20047;-85
2022/01/03 02:52:42;;;;;;;20.10;4.88;;;;;;;9.54;82.64;100779.75;4984440;28;20066;-86
2022/01/03 02:55:12;;;;;;;14.77;4.30;;;;;;;9.49;82.30;100749.81;4982880;28;20114;-84
2022/01/03 02:57:40;;;;;;;20.13;4.30;;;;;;;9.65;82.26;100789.19;4983068;28;20141;-85
2022/01/03 03:00:09;;;;;;;12.80;4.53;;;;;;;9.74;81.91;100777.88;4981426;28;20146;-85
2022/01/03 03:02:36;;;;;;;14.60;4.72;;;;;;;9.64;82.23;100771.88;4984204;28;20458;-85
2022/01/03 03:05:06;;;;;;;10.60;4.15;;;;;;;9.63;82.21;100773.66;4981338;28;20125;-87
2022/01/03 03:07:34;;;;;;;14.20;4.30;;;;;;;9.60;81.90;100760.88;4979559;28;20110;-87
2022/01/03 03:10:04;;;;;;;13.50;3.75;;;;;;;9.53;82.66;100759.00;4979660;28;20137;-85
2022/01/03 03:12:31;;;;;;;13.98;4.13;;;;;;;9.47;82.77;100741.31;4980268;28;20373;-84
2022/01/03 03:14:58;;;;;;;13.73;5.18;;;;;;;9.43;82.33;100751.25;4984356;28;20110;-85
2022/01/03 03:17:24;;;;;;;16.80;3.53;;;;;;;9.48;81.69;100756.81;4985250;28;20077;-84
2022/01/03 03:19:54;;;;;;;16.50;4.30;;;;;;;9.39;82.22;100757.72;4983915;28;20086;-84
2022/01/03 03:22:21;;;;;;;13.10;4.00;;;;;;;9.37;82.46;100769.28;4984501;28;20055;-84
2022/01/03 03:24:48;;;;;;;13.25;4.28;;;;;;;9.38;82.41;100761.31;4984858;28;20082;-84
2022/01/03 03:27:16;;;;;;;16.88;4.00;;;;;;;9.41;81.97;100762.81;4984515;28;20121;-85
2022/01/03 03:29:44;;;;;;;17.05;4.35;;;;;;;9.41;82.20;100768.84;4984238;28;20143;-84
2022/01/03 03:32:11;;;;;;;19.95;5.00;;;;;;;9.41;82.14;100763.63;5008583;23;20076;-80
2022/01/03 03:34:38;;;;;;;18.40;4.70;;;;;;;9.42;81.92;100770.50;4998956;28;20125;-82
2022/01/03 03:37:05;;;;;;;14.68;4.30;;;;;;;9.38;82.25;100766.53;4998877;28;20599;-82
2022/01/03 03:39:33;;;;;;;14.52;4.78;;;;;;;9.40;81.96;100758.56;4998991;28;20085;-82
2022/01/03 03:42:01;;;;;;;16.23;4.18;;;;;;;9.42;81.81;100764.44;4998453;28;20050;-82
2022/01/03 03:44:29;;;;;;;17.45;4.90;;;;;;;9.34;82.52;100762.56;4997736;28;20142;-82
2022/01/03 03:46:55;;;;;;;18.05;5.35;;;;;;;9.34;82.21;100778.22;4998615;28;20520;-83
2022/01/03 03:49:22;;;;;;;16.30;4.70;;;;;;;9.31;82.46;100770.69;4998830;28;20544;-82
2022/01/03 03:51:48;;;;;;;16.17;4.32;;;;;;;9.32;82.08;100764.50;4998317;28;20562;-83
2022/01/03 03:54:15;;;;;;;14.55;4.45;;;;;;;9.29;82.31;100773.44;4999516;28;20114;-83
2022/01/03 03:56:42;;;;;;;21.65;5.60;;;;;;;9.29;82.00;100775.22;4999871;28;20050;-83
2022/01/03 03:59:08;;;;;;;19.20;5.93;;;;;;;9.19;82.40;100767.41;4999442;28;20046;-83
2022/01/03 04:01:36;;;;;;;19.00;5.13;;;;;;;9.17;82.66;100778.97;5000142;28;20074;-84
2022/01/03 04:04:03;;;;;;;21.13;5.47;;;;;;;9.17;81.79;100768.53;4999474;28;20205;-83
2022/01/03 04:06:30;;;;;;;14.88;4.35;;;;;;;9.20;81.91;100768.25;5000661;28;20125;-83
2022/01/03 04:08:57;;;;;;;18.23;5.78;;;;;;;9.21;81.81;100775.94;5000953;28;20137;-83
2022/01/03 04:11:23;;;;;;;15.15;4.43;;;;;;;9.19;81.79;100777.03;5000313;28;20137;-82
2022/01/03 04:13:51;;;;;;;17.48;4.55;;;;;;;9.21;81.53;100780.34;5000108;28;20188;-81
2022/01/03 04:16:17;;;;;;;12.32;4.32;;;;;;;9.21;81.77;100759.44;4999976;28;20046;-82
2022/01/03 04:18:45;;;;;;;14.80;4.60;;;;;;;9.30;81.32;100769.03;4998292;28;20077;-83
2022/01/03 04:21:12;;;;;;;13.90;3.72;;;;;;;9.29;81.06;100763.00;5000163;28;20134;-84
2022/01/03 04:23:41;;;;;;;18.15;3.78;;;;;;;9.34;80.67;100765.16;5001713;28;20145;-83
2022/01/03 04:26:08;;;;;;;16.38;4.43;;;;;;;9.27;81.49;100771.94;5002673;28;20081;-83
2022/01/03 04:28:35;;;;;;;14.20;3.65;;;;;;;9.19;81.54;100769.22;5000748;28;20173;-82
2022/01/03 04:31:01;;;;;;;12.77;3.78;;;;;;;9.12;81.39;100750.69;5000293;28;20093;-81
2022/01/03 04:33:28;;;;;;;15.75;4.63;;;;;;;9.14;81.44;100753.16;4999516;28;20047;-81
2022/01/03 04:35:56;;;;;;;16.60;4.03;;;;;;;9.10;81.46;100763.06;4999220;28;20492;-81
2022/01/03 04:38:22;;;;;;;16.08;4.22;;;;;;;9.11;81.46;100759.47;5002510;28;20376;-82
2022/01/03 04:40:49;;;;;;;16.70;3.97;;;;;;;9.12;81.25;100755.91;5001133;28;20568;-82
2022/01/03 04:43:16;;;;;;;12.95;3.72;;;;;;;9.08;81.58;100751.13;5006320;28;20082;-82
2022/01/03 04:45:43;;;;;;;15.15;3.70;;;;;;;9.15;80.98;100757.41;5007475;28;20077;-82
2022/01/03 04:48:11;;;;;;;16.90;4.47;;;;;;;9.11;81.33;100763.88;5008422;28;20141;-83
2022/01/03 04:50:37;;;;;;;10.68;3.58;;;;;;;9.12;80.92;100749.88;5009220;28;20556;-83
2022/01/03 04:53:05;;;;;;;14.85;4.53;;;;;;;9.12;80.66;100749.88;5007409;28;20516;-82
2022/01/03 04:55:32;;;;;;;17.08;4.78;;;;;;;9.05;81.42;100748.78;4999695;28;20138;-82
2022/01/03 04:57:59;;;;;;;22.55;5.30;;;;;;;9.04;81.07;100750.56;5009360;28;20065;-82
2022/01/03 05:00:26;;;;;;;17.85;4.32;;;;;;;9.03;80.89;100741.09;5005738;28;20080;-81
2022/01/03 05:02:53;;;;;;;14.80;4.85;;;;;;;9.07;80.76;100739.03;5012329;28;20054;-82
2022/01/03 05:05:20;;;;;;;18.77;4.78;;;;;;;9.07;80.77;100742.47;5008109;28;20097;-81
2022/01/03 05:07:47;;;;;;;18.80;3.92;;;;;;;9.08;80.81;100746.72;5006423;28;20069;-81
2022/01/03 05:10:15;;;;;;;17.50;4.13;;;;;;;9.07;80.84;100745.06;5005037;28;20050;-79
2022/01/03 05:12:41;;;;;;;15.48;4.25;;;;;;;9.09;80.50;100745.75;5005552;28;20089;-82
2022/01/03 05:15:08;;;;;;;9.63;3.45;;;;;;;9.13;80.30;100746.28;5002876;28;20077;-82
2022/01/03 05:17:35;;;;;;;14.60;4.30;;;;;;;9.21;80.10;100749.81;4996946;28;20133;-82
2022/01/03 05:20:02;;;;;;;16.63;3.97;;;;;;;9.14;80.49;100737.50;4998922;28;20549;-82
2022/01/03 05:22:28;;;;;;;14.35;4.70;;;;;;;9.10;80.55;100736.13;5000334;28;20061;-82
2022/01/03 05:24:55;;;;;;;18.65;4.32;;;;;;;9.06;80.84;100740.00;5003422;28;20073;-81
2022/01/03 05:27:23;;;;;;;16.90;5.38;;;;;;;9.01;81.17;100743.03;5003284;28;20106;-82
2022/01/03 05:29:49;;;;;;;17.35;4.03;;;;;;;9.12;80.56;100739.41;5003637;28;20110;-82
2022/01/03 05:32:16;;;;;;;13.82;4.95;;;;;;;9.20;80.80;100736.91;5004532;28;20066;-81
2022/01/03 05:34:43;;;;;;;15.55;4.60;;;;;;;9.41;79.90;100739.31;4999739;28;20105;-80
2022/01/03 05:37:10;;;;;;;18.70;4.30;;;;;;;9.36;80.08;100715.41;5004212;28;20050;-82
2022/01/03 05:39:37;;;;;;;15.07;3.60;;;;;;;9.36;80.15;100737.13;5003582;28;20133;-81
2022/01/03 05:42:04;;;;;;;19.75;4.63;;;;;;;9.32;80.43;100736.59;4996141;28;20137;-82
2022/01/03 05:44:32;;;;;;;21.35;4.85;;;;;;;9.24;80.39;100730.44;4995705;28;20184;-82
2022/01/03 05:46:59;;;;;;;13.68;4.05;;;;;;;9.20;80.91;100734.31;5000348;28;20173;-83
2022/01/03 05:49:26;;;;;;;16.85;4.07;;;;;;;9.19;80.85;100730.06;5011125;28;20054;-82
2022/01/03 05:51:52;;;;;;;25.33;4.88;;;;;;;9.12;80.77;100729.81;5009145;28;20136;-81
2022/01/03 05:54:19;;;;;;;21.50;4.55;;;;;;;9.14;80.97;100727.03;5007011;28;20069;-80
2022/01/03 05:56:46;;;;;;;22.27;4.57;;;;;;;9.10;81.36;100723.91;5007332;28;20081;-81
2022/01/03 05:59:12;;;;;;;13.02;4.03;;;;;;;9.19;81.13;100730.88;5008710;28;20050;-82
2022/01/03 06:01:41;;;;;;;16.35;4.38;;;;;;;9.12;81.53;100726.38;5012568;28;20046;-82
2022/01/03 06:04:15;;;;;;;21.80;4.22;;;;;;;9.14;81.25;100730.47;5013083;28;20129;-82
2022/01/03 06:06:56;;;;;;;13.27;4.18;;;;;;;9.22;80.85;100738.41;5002230;28;20054;-83
2022/01/03 06:09:24;;;;;;;21.23;4.60;;;;;;;9.27;80.98;100732.75;4997293;28;20059;-83
2022/01/03 06:11:51;;;;;;;17.40;4.43;;;;;;;9.27;80.86;100720.53;4997334;28;20109;-83
2022/01/03 06:14:20;;;;;;;16.95;4.65;;;;;;;9.31;80.78;100724.50;4997072;28;20050;-82
2022/01/03 06:16:49;;;;;;;15.52;4.78;;;;;;;9.34;80.27;100723.38;4996948;28;20168;-83
2022/01/03 06:19:17;;;;;;;15.30;5.28;;;;;;;9.26;81.04;100715.44;4998190;28;20046;-83
2022/01/03 06:21:44;;;;;;;15.48;5.00;;;;;;;9.19;81.23;100724.84;4998257;28;20140;-83
2022/01/03 06:24:12;;;;;;;13.23;3.60;;;;;;;9.19;81.17;100725.66;4998673;28;20125;-82
2022/01/03 06:26:41;;;;;;;18.02;4.22;;;;;;;9.21;81.34;100730.72;4997542;28;20110;-82
2022/01/03 06:29:08;;;;;;;14.02;3.95;;;;;;;9.31;80.96;100719.28;4997161;28;20402;-82
2022/01/03 06:31:35;;;;;;;19.83;4.53;;;;;;;9.18;81.23;100712.75;4998432;28;20133;-83
2022/01/03 06:34:04;;;;;;;23.58;5.00;;;;;;;9.20;81.55;100716.03;5002262;28;20055;-81
2022/01/03 06:36:31;;;;;;;17.80;4.65;;;;;;;9.24;81.03;100714.78;4999080;28;20047;-81
2022/01/03 06:38:57;;;;;;;18.05;4.30;;;;;;;9.22;81.42;100709.69;4997256;28;20053;-82
2022/01/03 06:41:24;;;;;;;22.50;4.30;;;;;;;9.20;81.60;100709.03;4997299;28;20078;-81
2022/01/03 06:43:51;;;;;;;16.98;4.22;;;;;;;9.19;81.84;100719.59;4997389;28;20084;-81
2022/01/03 06:46:18;;;;;;;18.42;4.45;;;;;;;9.05;82.21;100717.47;4997623;28;20133;-81
2022/01/03 06:48:46;;;;;;;21.52;4.90;;;;;;;8.98;82.66;100731.09;4998987;28;20070;-82
2022/01/03 06:51:14;;;;;;;14.70;4.40;;;;;;;8.91;83.14;100722.22;5005899;28;20120;-81
2022/01/03 06:53:41;;;;;;;18.92;5.32;;;;;;;8.97;82.77;100731.25;4997141;28;20073;-82
2022/01/03 06:56:08;;;;;;;16.67;4.85;;;;;;;8.98;82.57;100738.09;4999719;28;20089;-79
2022/01/03 06:58:35;;;;;;;19.50;4.75;;;;;;;9.06;82.92;100727.75;5002364;28;20086;-80
2022/01/03 07:01:02;;;;;;;12.95;4.10;;;;;;;9.08;82.62;100727.63;5002018;28;20054;-81
2022/01/03 07:03:29;;;;;;;18.08;4.75;;;;;;;9.12;82.99;100729.81;5000834;28;20122;-81
2022/01/03 07:05:56;;;;;;;15.90;4.32;;;;;;;9.12;83.09;100729.81;5002651;28;20138;-81
2022/01/03 07:08:49;;;;;;;19.40;6.85;;;;;;;9.08;83.49;100722.41;4995384;28;20053;-82
2022/01/03 07:11:24;;;;;;;20.73;6.13;;;;;;;9.04;83.72;100705.38;4999724;28;20054;-82
2022/01/03 07:20:02;;;;;;;14.73;5.93;;;;;;;9.11;83.52;100714.28;5000297;28;20108;-82
2022/01/03 07:22:29;;;;;;;21.55;5.15;;;;;;;8.98;84.32;100702.38;4999333;28;20050;-82
2022/01/03 07:24:58;;;;;;;19.15;5.05;;;;;;;8.91;84.68;100696.13;4997168;28;20122;-83
2022/01/03 07:27:24;;;;;;;13.65;4.72;;;;;;;8.90;84.60;100699.69;4996873;28;20501;-83
2022/01/03 07:29:51;;;;;;;18.23;5.20;;;;;;;8.85;84.71;100701.09;4997331;28;20081;-82
2022/01/03 07:32:18;;;;;;;16.20;4.72;;;;;;;8.80;85.23;100709.34;4998073;28;20392;-81
2022/01/03 07:34:44;;;;;;;18.58;4.65;;;;;;;8.80;85.18;100706.72;4997444;28;20050;-81
2022/01/03 07:37:16;;;;;;;19.40;4.80;;;;;;;8.73;85.92;100707.44;4998369;28;20070;-84
2022/01/03 07:39:49;;;;;;;26.25;5.28;;;;;;;8.73;85.84;100708.25;4999811;28;20085;-84
2022/01/03 07:42:30;;;;;;;15.73;4.88;;;;;;;8.71;86.08;100707.56;5000862;28;20081;-81
2022/01/03 07:45:02;;;;;;;15.32;4.93;;;;;;;8.60;86.22;100695.50;4998994;28;20050;-84
2022/01/03 07:47:33;;;;;;;16.42;5.82;;;;;;;8.60;86.57;100702.50;4997266;28;20526;-83
2022/01/03 07:50:20;;;;;;;20.95;5.60;;;;;;;8.75;86.79;100710.72;4997428;28;20065;-83
2022/01/03 07:53:00;;;;;;;17.33;4.70;;;;;;;8.73;86.47;100687.38;5005132;28;20122;-82
2022/01/03 07:55:37;;;;;;;14.35;4.15;;;;;;;8.89;86.27;100698.03;5008319;28;20050;-83
2022/01/03 07:58:16;;;;;;;23.02;4.70;;;;;;;8.88;87.23;100701.63;5004167;28;20046;-83
2022/01/03 08:00:47;;;;;;;21.13;5.22;;;;;;;8.99;87.34;100711.84;5002398;28;20055;-83
2022/01/03 08:03:32;;;;;;;16.55;5.32;;;;;;;9.01;87.86;100711.72;5001461;28;20100;-83
2022/01/03 08:06:03;;;;;;;21.95;6.18;;;;;;;8.88;89.22;100703.41;4996796;28;20085;-83
2022/01/03 08:08:30;;;;;;;18.25;4.88;;;;;;;8.75;90.16;100690.66;4996129;28;20046;-82
2022/01/03 08:10:56;;;;;;;19.15;5.25;;;;;;;8.76;90.65;100707.97;4996760;28;20137;-82
2022/01/03 08:13:24;;;;;;;21.10;6.05;;;;;;;8.74;91.10;100709.91;4997138;28;20070;-82
2022/01/03 08:15:51;;;;;;;23.17;6.68;;;;;;;8.67;91.57;100719.25;4996843;28;20133;-82
2022/01/03 08:18:18;;;;;;;17.23;5.20;;;;;;;8.67;91.48;100721.03;4996457;28;20417;-82
2022/01/03 08:20:44;;;;;;;22.55;6.47;;;;;;;8.61;91.37;100715.41;5002995;28;20124;-82
2022/01/03 08:23:11;;;;;;;23.05;5.35;;;;;;;8.71;91.20;100725.00;5019023;28;20108;-82
2022/01/03 08:25:38;;;;;;;16.65;4.88;;;;;;;8.69;91.27;100716.50;5020691;28;20081;-82
2022/01/03 08:28:05;;;;;;;17.27;5.32;;;;;;;8.83;90.99;100713.44;5018895;28;20116;-83
2022/01/03 08:30:34;;;;;;;18.92;5.22;;;;;;;8.83;90.59;100697.78;5012064;28;20042;-83
2022/01/03 08:33:01;;;;;;;17.30;4.78;;;;;;;8.95;90.19;100733.19;5017310;28;20052;-83
2022/01/03 08:35:28;;;;;;;24.02;6.32;;;;;;;8.97;89.80;100726.03;5013528;28;20080;-82
2022/01/03 08:38:00;;;;;;;19.05;4.80;;;;;;;9.07;88.79;100732.03;5017399;28;20085;-83
2022/01/03 08:40:27;;;;;;;17.33;4.77;;;;;;;9.05;88.42;100704.41;5020124;28;20054;-83
2022/01/03 08:42:54;;;;;;;22.10;4.90;;;;;;;9.19;88.47;100730.88;5024281;28;20046;-81
2022/01/03 08:45:22;;;;;;;14.55;4.90;;;;;;;9.34;87.65;100739.06;5019707;28;20050;-82
2022/01/03 08:47:53;;;;;;;21.30;5.20;;;;;;;9.38;87.52;100744.81;5019063;28;20104;-83
2022/01/03 08:50:20;;;;;;;19.52;4.55;;;;;;;9.29;88.36;100728.22;5022648;28;20062;-81
2022/01/03 08:52:47;;;;;;;20.98;5.32;;;;;;;9.29;88.57;100729.03;4997427;28;20058;-82
2022/01/03 08:55:15;;;;;;;16.40;5.55;;;;;;;9.30;88.41;100716.81;4997538;28;20204;-83
2022/01/03 08:57:42;;;;;;;17.95;5.20;;;;;;;9.30;88.61;100727.25;4998541;28;20073;-82
2022/01/03 09:00:10;;;;;;;24.25;5.45;;;;;;;9.39;88.07;100717.72;4997589;28;20047;-82
2022/01/03 09:02:37;;;;;;;24.20;6.00;;;;;;;9.44;87.18;100715.50;4999434;28;20065;-82
2022/01/03 09:05:05;;;;;;;23.35;5.30;;;;;;;9.52;86.53;100715.56;4998350;28;20133;-82
2022/01/03 09:07:32;;;;;;;20.73;6.38;;;;;;;9.51;85.69;100693.84;4997126;28;20106;-82
2022/01/03 09:09:59;;;;;;;19.55;5.68;;;;;;;9.64;85.12;100693.50;4996237;28;20061;-83
2022/01/03 09:12:27;;;;;;;23.35;5.45;;;;;;;9.65;84.35;100693.34;4997787;28;20089;-82
2022/01/03 09:14:54;;;;;;;18.92;5.63;;;;;;;9.68;83.86;100679.16;4997428;28;20057;-83
2022/01/03 09:17:21;;;;;;;17.67;4.90;;;;;;;9.65;83.81;100690.72;4995425;28;20057;-82
2022/01/03 09:19:48;;;;;;;13.15;4.63;;;;;;;9.69;83.15;100680.81;4996614;28;20133;-82
2022/01/03 09:22:20;;;;;;;18.90;4.95;;;;;;;9.65;82.55;100675.06;4997508;28;20456;-82
2022/01/03 09:24:54;;;;;;;19.93;5.00;;;;;;;9.61;82.09;100673.72;4997867;28;20058;-82
2022/01/03 09:30:08;;;;;;;23.75;5.10;;;;;;;9.74;82.15;100706.50;4997396;28;20069;-81
2022/01/03 09:33:28;;;;;;;14.45;4.10;;;;;;;9.73;82.69;100687.38;5034563;23;20077;-83
2022/01/03 09:39:32;;;;;;;13.23;4.38;;;;;;;9.63;82.73;100677.00;4964547;28;20057;-83
2022/01/03 09:42:03;;;;;;;13.02;4.72;;;;;;;9.65;81.81;100680.28;5007562;28;20097;-82
2022/01/03 09:44:33;;;;;;;23.00;5.07;;;;;;;9.75;81.60;100676.78;5017966;28;20053;-82
2022/01/03 09:47:06;;;;;;;14.98;4.57;;;;;;;9.88;81.84;100685.06;5020081;28;20042;-82
2022/01/03 09:49:36;;;;;;;11.23;5.10;;;;;;;10.09;81.06;100693.41;5016325;28;20137;-80
2022/01/03 09:52:05;;;;;;;17.63;4.60;;;;;;;10.12;80.64;100685.25;5010991;28;20050;-81
2022/01/03 09:54:36;;;;;;;20.95;5.00;;;;;;;10.21;80.72;100692.22;5009832;28;20081;-82
2022/01/03 09:57:16;;;;;;;12.93;4.35;;;;;;;10.04;80.04;100664.28;5014167;28;20096;-82
2022/01/03 09:59:44;;;;;;;15.25;5.45;;;;;;;10.15;80.62;100692.81;5000854;28;20092;-82
2022/01/03 10:02:15;;;;;;;14.77;5.25;;;;;;;10.03;80.25;100683.53;5014329;28;20088;-81
2022/01/03 10:04:41;;;;;;;15.60;4.70;;;;;;;10.05;80.96;100694.69;5018957;28;20050;-81
2022/01/03 10:07:09;;;;;;;13.80;4.50;;;;;;;10.05;80.98;100692.06;5019472;28;20106;-81
2022/01/03 10:09:39;;;;;;;20.23;5.10;;;;;;;10.04;80.65;100687.81;5013359;28;20062;-81
2022/01/03 10:12:06;;;;;;;18.00;4.90;;;;;;;10.18;80.51;100692.50;5018256;28;20077;-82
2022/01/03 10:14:33;;;;;;;22.90;5.35;;;;;;;10.29;80.23;100683.63;5017728;28;20133;-81
2022/01/03 10:17:00;;;;;;;18.00;6.20;;;;;;;10.28;80.03;100680.19;5018358;28;20113;-82
2022/01/03 10:19:26;;;;;;;16.73;5.20;;;;;;;10.39;79.90;100683.53;5017401;28;20116;-81
2022/01/03 10:21:53;;;;;;;15.88;4.47;;;;;;;10.37;79.51;100667.19;5018314;28;20053;-80
2022/01/03 10:24:32;;;;;;;18.27;5.60;;;;;;;10.33;79.23;100665.84;5017528;28;20133;-80
2022/01/03 10:27:00;;;;;;;18.77;4.45;;;;;;;10.50;79.50;100685.88;5016505;28;20069;-81
2022/01/03 10:29:30;;;;;;;14.52;4.60;;;;;;;10.70;79.29;100676.84;5018590;28;20046;-81
2022/01/03 10:32:00;;;;;;;19.38;5.00;;;;;;;10.77;78.79;100672.63;5022511;28;20175;-82
2022/01/03 10:34:27;;;;;;;18.58;5.25;;;;;;;10.83;77.86;100665.94;5022136;28;20105;-81
2022/01/03 10:36:56;;;;;;;17.65;4.72;;;;;;;10.96;77.57;100656.66;5022481;28;20416;-82
2022/01/03 10:39:25;;;;;;;20.30;4.80;;;;;;;10.99;77.39;100660.75;5018400;28;20053;-81
2022/01/03 10:41:56;;;;;;;15.30;4.75;;;;;;;10.97;77.41;100647.84;5021068;28;20092;-80
2022/01/03 10:44:36;;;;;;;15.32;4.95;;;;;;;11.04;77.63;100652.44;5019004;28;20093;-81
2022/01/03 10:47:04;;;;;;;14.75;4.55;;;;;;;10.89;77.61;100655.66;5018951;28;20045;-81
2022/01/03 10:49:32;;;;;;;15.75;4.32;;;;;;;10.81;78.11;100655.63;5020497;28;20514;-80
2022/01/03 10:52:14;;;;;;;14.40;4.97;;;;;;;10.61;79.15;100660.28;5018733;28;20050;-82
2022/01/03 10:54:41;;;;;;;27.75;5.05;;;;;;;10.53;78.37;100648.94;5021586;28;20041;-81
2022/01/03 10:57:08;;;;;;;17.88;5.50;;;;;;;10.55;79.47;100657.47;5023028;28;20580;-83
2022/01/03 10:59:36;;;;;;;14.82;5.47;;;;;;;10.53;79.44;100644.53;5022627;28;20073;-83
2022/01/03 11:02:10;;;;;;;17.27;4.53;;;;;;;10.49;78.42;100631.91;5023664;28;20053;-84
2022/01/03 11:04:48;;;;;;;14.88;4.72;;;;;;;10.64;78.76;100630.34;5022516;28;20512;-84
2022/01/03 11:13:19;;;;;;;17.67;5.00;;;;;;;10.64;78.40;100630.34;5021034;28;20064;-84
2022/01/03 11:15:53;;;;;;;12.52;4.07;;;;;;;10.69;79.03;100633.34;4995778;28;20509;-83
2022/01/03 11:18:24;;;;;;;11.63;4.60;;;;;;;10.66;78.62;100611.88;5001778;28;20061;-82
2022/01/03 11:21:04;;;;;;;12.85;4.03;;;;;;;10.68;78.90;100616.00;5001657;28;20061;-83
2022/01/03 11:23:30;;;;;;;10.88;3.80;;;;;;;10.60;78.64;100608.91;5001573;28;20445;-83
2022/01/03 11:25:58;;;;;;;12.27;3.88;;;;;;;10.66;79.51;100622.34;5013754;28;20096;-83
2022/01/03 11:28:27;;;;;;;12.98;4.00;;;;;;;10.62;79.46;100606.16;5021486;28;20081;-83
2022/01/03 11:30:57;;;;;;;14.13;4.63;;;;;;;10.61;79.61;100613.16;5021961;28;20536;-83
2022/01/03 11:33:26;;;;;;;16.40;4.72;;;;;;;10.56;79.23;100598.91;5021300;28;20050;-82
2022/01/03 11:35:53;;;;;;;13.65;4.25;;;;;;;10.64;78.74;100617.28;5023365;28;20050;-84
2022/01/03 11:38:22;;;;;;;12.18;3.53;;;;;;;10.60;79.83;100619.38;5026517;28;20062;-84
2022/01/03 11:40:49;;;;;;;12.63;3.65;;;;;;;10.54;79.45;100608.72;5025648;28;20122;-84
2022/01/03 11:43:21;;;;;;;17.85;4.97;;;;;;;10.49;80.27;100598.72;5022325;28;20130;-83
2022/01/03 11:45:49;;;;;;;14.23;4.80;;;;;;;10.49;79.76;100595.28;5021656;28;20050;-82
2022/01/03 11:48:17;;;;;;;16.08;5.07;;;;;;;10.46;80.40;100585.94;5022847;28;20050;-82
2022/01/03 11:50:44;;;;;;;13.10;4.20;;;;;;;10.30;80.35;100565.78;5024400;28;20061;-82
2022/01/03 11:53:23;;;;;;;13.00;4.10;;;;;;;10.28;80.43;100583.44;5022890;28;20493;-81
2022/01/03 11:55:55;;;;;;;12.63;4.30;;;;;;;10.18;80.85;100595.75;5020926;28;20120;-81